CYAM

Sault Ste Marie Airport

Sault Ste Marie, , Canada
METAR CYAM 120900Z 07004KT 10SM FEW018 FEW140 SCT240 M07/M08 A3004 RMK SC1AC1CI2 FROIN SLP185
Observed Flight Rules
Dec-12 @ 09:00 UTC (an hour ago) Visual Flight Rules
Wind Visibility Clouds
70° at 4 knots 10 miles
  • Few at 1,800' AGL
  • Few at 14,000' AGL
  • Scattered at 24,000' AGL
Temperatures Readings
Current -7°C / 19°F
Dewpoint -8°C / 18°F
Humidity 93%
Altimeter 30.04" Hg
Pressure 1018.5 hPa
Elevation 192
METAR CYAM 120900Z 07004KT 10SM FEW018 FEW140 SCT240 M07/M08 A3004 RMK SC1AC1CI2 FROIN SLP185
Observed Flight Rules
Dec-12 @ 09:00 UTC
(an hour ago)
VFR
Wind Visibility
70° at 4 knots 10 miles
Clouds
  • Few at 1,800' AGL
  • Few at 14,000' AGL
  • Scattered at 24,000' AGL
Temperature Dewpoint
-7°C / 19°F -8°C / 18°F
Humidity Altimeter Pressure
93% 30.04" Hg 1018.5 hPa